• Join FlightAware (Why Join?)
  • Login
  • US Flag 
04:06AM EDT


 

Airport Tracker/Info


-or-


 

Live Flight TrackerFlight Track Log ✈ SKW6449 ✈ 14-Nov-2013 ✈ KCOS - KORD

Flight Track Log - Related Links

Times and Time Zones

All times are in EST time to prevent confusion due to time zone crossing. See the SKW6449 flight status page for this flight to view local times or setup timezone preferences in your user account.

Time Position Orientation Groundspeed Altitude Reporting Facility
EST Latitude Longitude Course Direction KTS MPH feet Rate Location/Type
01:16PM 38.8569 -104.6542 82° East 226 260 9,200  Level Denver Center
01:17PM 38.8325 -104.5644 109° East 270 311 10,300 1,680 Climbing Denver Center
01:18PM 38.9380 -104.2116 113° Southeast  Level Estimated
01:18PM 38.7858 -104.4497 118° Southeast 313 360 12,700  Level Denver Center
01:19PM 38.9817 -104.0482 77° East  Level Estimated
01:19PM 38.7444 -104.3481 118° Southeast 330 380 15,000  Level Denver Center
01:20PM 38.8743 -103.9444 143° Southeast  Level FlightAware Approximate
01:20PM 38.6933 -104.2244 118° Southeast 344 396 17,300  Level Denver Center
01:21PM 38.9188 -103.7815 76° East  Level Estimated
01:21PM 38.6489 -104.1133 117° Southeast 358 412 19,200  Level Denver Center
01:22PM 38.9631 -103.6184 82° East  Level Estimated
01:22PM 38.5947 -103.9828 118° Southeast 370 426 21,300  Level Denver Center
01:24PM 38.5472 -103.8711 119° Southeast 372 428 23,100 1,500 Climbing Denver Center
01:25PM 38.5467 -103.7497 90° East 371 427 24,400 1,260 Climbing Denver Center
01:26PM 38.5600 -103.6042 83° East 368 423 25,800 1,200 Climbing Denver Center
01:27PM 38.5708 -103.4722 84° East 383 441 26,900 960 Climbing Denver Center
01:28PM 38.5836 -103.3308 83° East 398 458 27,900 960 Climbing Denver Center
01:29PM 38.5950 -103.1844 84° East 412 474 28,900 900 Climbing Denver Center
01:30PM 38.6092 -103.0053 84° East 424 488 29,800 780 Climbing Denver Center
01:31PM 38.6231 -102.8486 83° East 441 507 30,600 660 Climbing Denver Center
01:32PM 38.6336 -102.6944 85° East 453 521 31,200 840 Climbing Denver Center
01:33PM 38.6478 -102.5119 84° East 461 531 32,400 960 Climbing Denver Center
01:34PM 38.6594 -102.3547 85° East 463 533 33,200 720 Climbing Denver Center
01:35PM 38.6728 -102.1689 85° East 469 540 34,000 720 Climbing Denver Center
01:36PM 38.6861 -102.0094 84° East 470 541 34,800 660 Climbing Denver Center
01:37PM 38.6978 -101.8208 85° East 475 547 35,400 540 Climbing Denver Center
01:38PM 38.7097 -101.6572 85° East 481 554 36,000 720 Climbing Denver Center
01:39PM 38.7219 -101.4667 85° East 480 552 36,900 600 Climbing Denver Center
01:40PM 38.7325 -101.3047 85° East 478 550 37,300 300 Climbing Denver Center
01:41PM 38.7456 -101.1131 85° East 481 554 37,600 360 Climbing Denver Center
01:42PM 38.7550 -100.9467 86° East 485 558 38,100 540 Climbing Denver Center
01:43PM 38.7653 -100.7828 85° East 485 558 38,800 420 Climbing Denver Center
01:44PM 38.7767 -100.5933 86° East 478 550 39,000 60 Climbing Denver Center
01:45PM 38.7867 -100.4286 85° East 481 554 39,000  Level Denver Center
01:46PM 38.7936 -100.3200 85° East 482 555 39,000  Level Kansas City Center
01:47PM 38.8047 -100.1247 86° East 487 560 39,000  Level Kansas City Center
01:48PM 38.8139 -99.9575 86° East 490 564 39,000  Level Kansas City Center
01:49PM 38.8278 -99.7614 85° East 492 566 39,000  Level Kansas City Center
01:50PM 38.8636 -99.5997 74° East 493 567 39,000  Level Kansas City Center
01:51PM 38.9039 -99.4108 75° East 491 565 39,000  Level Kansas City Center
01:52PM 38.9386 -99.2481 75° East 492 566 39,000  Level Kansas City Center
01:53PM 38.9778 -99.0589 75° East 497 572 39,000  Level Kansas City Center
01:54PM 39.0111 -98.8944 75° East 495 570 39,000  Level Kansas City Center
01:55PM 39.0497 -98.7156 74° East 498 573 39,000  Level Kansas City Center
01:56PM 39.0867 -98.5364 75° East 497 572 39,000  Level Kansas City Center
01:57PM 39.1242 -98.3558 75° East 500 575 39,000  Level Kansas City Center
01:58PM 39.1608 -98.1753 75° East 500 575 39,000  Level Kansas City Center
01:59PM 39.1961 -97.9950 76° East 500 575 39,000  Level Kansas City Center
02:00PM 39.2311 -97.8214 75° East 502 578 39,000  Level Kansas City Center
02:01PM 39.2658 -97.6453 76° East 506 582 39,000  Level Kansas City Center
02:02PM 39.3022 -97.4558 76° East 498 573 39,000  Level Kansas City Center
02:03PM 39.3342 -97.2875 76° East 501 577 39,000  Level Kansas City Center
02:04PM 39.3725 -97.0894 76° East 507 583 39,000  Level Kansas City Center
02:06PM 39.4044 -96.9194 76° East 509 586 39,000  Level Kansas City Center
02:07PM 39.4425 -96.7189 76° East 513 590 39,000  Level Kansas City Center
02:08PM 39.4744 -96.5483 76° East 511 588 39,000  Level Kansas City Center
02:09PM 39.5064 -96.3808 76° East 503 579 39,000  Level Kansas City Center
02:10PM 39.5428 -96.1792 77° East 510 587 39,000  Level Kansas City Center
02:11PM 39.5736 -96.0078 77° East 509 586 39,000  Level Kansas City Center
02:12PM 39.6097 -95.8081 77° East 508 585 39,000  Level Kansas City Center
02:13PM 39.6414 -95.6328 77° East 517 595 39,000  Level Kansas City Center
02:14PM 39.6758 -95.4314 77° East 510 587 39,000  Level Kansas City Center
02:15PM 39.7067 -95.2578 77° East 511 588 39,000  Level Kansas City Center
02:16PM 39.7358 -95.0847 78° East 510 587 39,000  Level Kansas City Center
02:17PM 39.7706 -94.8792 78° East 513 590 39,000  Level Kansas City Center
02:18PM 39.8000 -94.7078 77° East 512 589 39,000  Level Kansas City Center
02:19PM 39.8342 -94.5053 78° East 512 589 39,000  Level Kansas City Center
02:20PM 39.8619 -94.3314 78° East 512 589 39,000  Level Kansas City Center
02:21PM 39.8950 -94.1281 78° East 512 589 39,000  Level Kansas City Center
02:22PM 39.9200 -93.9647 79° East 519 597 39,000  Level Kansas City Center
02:23PM 39.9547 -93.7472 78° East 516 594 39,000  Level Kansas City Center
02:24PM 39.9872 -93.5675 77° East 516 594 39,000  Level Kansas City Center
02:25PM 40.0353 -93.3925 70° East 516 594 39,000  Level Kansas City Center
02:26PM 40.0819 -93.2169 71° East 517 595 39,000  Level Kansas City Center
02:27PM 40.1328 -93.0383 70° East 516 594 39,000  Level Kansas City Center
02:28PM 40.1842 -92.8392 71° East 518 596 39,000 -360 Level Kansas City Center
02:29PM 40.2300 -92.6681 71° East 519 597 38,300 -540 Descending Kansas City Center
02:30PM 40.2842 -92.4700 70° East 519 597 38,000 -180 Descending Kansas City Center
02:31PM 40.3325 -92.2786 72° East 520 598 38,000  Level Kansas City Center
02:32PM 40.3786 -92.0989 71° East 524 603 38,000  Level Kansas City Center
02:33PM 40.4239 -91.9203 72° East 521 600 38,000  Level Kansas City Center
02:34PM 40.4681 -91.7383 72° East 525 604 38,000  Level Kansas City Center
02:36PM 40.5150 -91.5589 71° East 524 603 38,000 -180 Level Kansas City Center
02:37PM 40.5714 -91.3464 71° East 519 597 37,700 -540 Descending Kansas City Center
02:38PM 40.6289 -91.1792 66° East 511 588 37,000 -360 Descending Kansas City Center
02:39PM 40.6872 -91.0125 65° Northeast 503 579 37,000  Level Kansas City Center
02:40PM 40.7442 -90.8433 66° East 503 579 37,000 -1,140 Level Kansas City Center
02:41PM 40.8017 -90.6683 66° East 513 590 34,700 -1,500 Descending Kansas City Center
02:42PM 40.8617 -90.4956 65° Northeast 514 592 34,000 -900 Descending Kansas City Center
02:43PM 40.9186 -90.3222 66° East 512 589 32,900 -1,800 Descending Kansas City Center
02:44PM 41.0125 -90.0406 66° East 521 600 29,500 -2,400 Descending Chicago Center
02:45PM 41.0703 -89.8636 67° East 519 597 27,000 -2,400 Descending Chicago Center
02:46PM 41.1258 -89.6967 66° East 499 574 24,600 -2,280 Descending Chicago Center
02:47PM 41.1803 -89.5378 65° Northeast 476 548 22,300 -2,280 Descending Chicago Center
02:48PM 41.2414 -89.3875 62° Northeast 465 535 19,900 -2,220 Descending Chicago Center
02:49PM 41.3011 -89.2408 62° Northeast 454 522 17,700 -1,980 Descending Chicago Center
02:50PM 41.3581 -89.0986 62° Northeast 432 497 15,800 -1,980 Descending Chicago Center
02:51PM 41.4197 -88.9408 62° Northeast 407 468 13,700 -1,800 Descending Chicago Center
02:52PM 41.4731 -88.8050 62° Northeast 410 472 12,100 -840 Descending Chicago Center
02:54PM 41.5261 -88.6725 62° Northeast 409 471 12,000 -60 Descending Chicago Center
02:55PM 41.5842 -88.5461 58° Northeast 403 464 12,000 -300 Level Chicago Center
02:56PM 41.6561 -88.4300 50° Northeast 403 464 11,500 -1,020 Descending Chicago Center
02:57PM 41.7200 -88.3064 55° Northeast 399 459 10,000 -780 Descending Chicago Center
02:58PM 41.7794 -88.1914 55° Northeast 379 436 9,900 -1,020 Descending Chicago Center
02:59PM 41.8408 -88.0736 55° Northeast 327 376 7,900 -1,380 Descending Chicago Center
03:00PM 41.8833 -87.9500 65° Northeast 326 375 7,000 -480 Descending Chicago TRACON
03:01PM 41.8833 -87.8333 90° East 288 331 7,000 -540 Level Chicago TRACON
03:02PM 41.8833 -87.7500 90° East 242 278 6,000 -1,260 Descending Chicago TRACON
03:03PM 41.8833 -87.6500 90° East 239 275 4,500 -1,020 Descending Chicago TRACON
03:04PM 41.9333 -87.6167 26° Northeast 222 255 4,000 -300 Descending Chicago TRACON
03:05PM 41.9667 -87.6500 323° Northwest 152 175 4,000 -300 Level Chicago TRACON
03:06PM 41.9667 -87.7000 270° West 135 155 3,400 -720 Descending Chicago TRACON
03:07PM 41.9667 -87.7667 270° West 156 180 2,600 -840 Descending Chicago TRACON
03:08PM 41.9667 -87.8167 270° West 144 166 1,800 -780 Descending Chicago TRACON
03:09PM 41.9667 -87.8667 270° West 120 138 1,100 -720 Descending Chicago TRACON